createdAt,value
2022-10-16T00:00:44.810Z,1016.3
2022-10-16T00:01:44.899Z,1016.14
2022-10-16T00:02:44.899Z,1016.08
2022-10-16T00:03:44.806Z,1016.09
2022-10-16T00:04:44.791Z,1016.03
2022-10-16T00:05:44.837Z,1016.32
2022-10-16T00:06:44.817Z,1016.11
2022-10-16T00:07:44.823Z,1016.09
2022-10-16T00:08:44.790Z,1016.12
2022-10-16T00:09:44.797Z,1016.16
2022-10-16T00:10:44.790Z,1016.16
2022-10-16T00:11:44.874Z,1016.17
2022-10-16T00:12:44.823Z,1016.26
2022-10-16T00:13:44.846Z,1016.31
2022-10-16T00:14:44.802Z,1016.19
2022-10-16T00:15:44.795Z,1016.27
2022-10-16T00:16:44.810Z,1016.18
2022-10-16T00:17:44.820Z,1016.27
2022-10-16T00:18:44.794Z,1016.4
2022-10-16T00:19:44.798Z,1016.34
2022-10-16T00:20:44.847Z,1016.2
2022-10-16T00:21:44.854Z,1016.2
2022-10-16T00:22:44.831Z,1016.2
2022-10-16T00:23:44.803Z,1016.42
2022-10-16T00:24:44.791Z,1016.18
2022-10-16T00:25:44.795Z,1016.19
2022-10-16T00:26:44.826Z,1016.35
2022-10-16T00:27:44.821Z,1016.19
2022-10-16T00:28:44.873Z,1016.31
2022-10-16T00:29:44.812Z,1016.31
2022-10-16T00:30:44.797Z,1016.29
2022-10-16T00:31:44.813Z,1016.42
2022-10-16T00:32:44.820Z,1016.31
2022-10-16T00:33:44.812Z,1016.24
2022-10-16T00:34:44.862Z,1016.34
2022-10-16T00:35:44.809Z,1016.39
2022-10-16T00:36:44.823Z,1016.22
2022-10-16T00:37:44.848Z,1016.25
2022-10-16T00:38:44.808Z,1016.22
2022-10-16T00:39:44.836Z,1016.3
2022-10-16T00:40:44.814Z,1016.31
2022-10-16T00:41:44.819Z,1016.41
2022-10-16T00:42:44.820Z,1016.42
2022-10-16T00:43:44.811Z,1016.3
2022-10-16T00:44:44.812Z,1016.19
2022-10-16T00:45:44.811Z,1016.19
2022-10-16T00:46:44.816Z,1016.2
2022-10-16T00:47:44.822Z,1016.3
2022-10-16T00:48:44.820Z,1016.22
2022-10-16T00:49:44.810Z,1016.16
2022-10-16T00:50:44.830Z,1016.35
2022-10-16T00:51:44.814Z,1016.36
2022-10-16T00:52:44.822Z,1016.3
2022-10-16T00:53:44.876Z,1016.36
2022-10-16T00:54:44.804Z,1016.42
2022-10-16T00:55:44.811Z,1016.35
2022-10-16T00:56:44.827Z,1016.34
2022-10-16T00:57:44.840Z,1016.34
2022-10-16T00:58:44.801Z,1016.35
2022-10-16T00:59:44.790Z,1016.49
2022-10-16T01:00:44.830Z,1016.44
2022-10-16T01:01:44.813Z,1016.47
2022-10-16T01:02:44.828Z,1016.45
2022-10-16T01:03:44.804Z,1016.43
2022-10-16T01:04:44.815Z,1016.51
2022-10-16T01:05:44.813Z,1016.6
2022-10-16T01:06:44.809Z,1016.61
2022-10-16T01:07:44.821Z,1016.59
2022-10-16T01:08:44.813Z,1016.58
2022-10-16T01:09:44.819Z,1016.68
2022-10-16T01:10:44.807Z,1016.63
2022-10-16T01:11:44.823Z,1016.65
2022-10-16T01:12:47.842Z,1016.57
2022-10-16T01:13:44.808Z,1016.6
2022-10-16T01:14:44.817Z,1016.55
2022-10-16T01:15:44.829Z,1016.66
2022-10-16T01:16:44.808Z,1016.63
2022-10-16T01:17:44.827Z,1016.73
2022-10-16T01:18:44.811Z,1016.64
2022-10-16T01:19:44.798Z,1016.69
2022-10-16T01:20:44.807Z,1016.71
2022-10-16T01:21:44.838Z,1016.81
2022-10-16T01:22:44.823Z,1016.79
2022-10-16T01:23:44.805Z,1016.77
2022-10-16T01:24:44.889Z,1016.73
2022-10-16T01:25:44.798Z,1016.66
2022-10-16T01:26:44.835Z,1016.8
2022-10-16T01:27:44.825Z,1016.71
2022-10-16T01:28:44.850Z,1016.77
2022-10-16T01:29:44.793Z,1016.75
2022-10-16T01:30:44.808Z,1016.81
2022-10-16T01:31:44.805Z,1016.74
2022-10-16T01:32:44.836Z,1016.84
2022-10-16T01:33:44.873Z,1016.69
2022-10-16T01:34:44.794Z,1016.71
2022-10-16T01:35:44.832Z,1016.7
2022-10-16T01:36:44.807Z,1016.76
2022-10-16T01:37:44.820Z,1016.71
2022-10-16T01:38:44.804Z,1016.71
2022-10-16T01:39:44.818Z,1016.63
2022-10-16T01:40:44.811Z,1016.63
2022-10-16T01:41:44.820Z,1016.65
2022-10-16T01:42:44.907Z,1016.6
2022-10-16T01:43:44.808Z,1016.69
2022-10-16T01:44:44.809Z,1016.69
2022-10-16T01:45:44.805Z,1016.69
2022-10-16T01:46:44.811Z,1016.72
2022-10-16T01:47:44.834Z,1016.73
2022-10-16T01:48:44.842Z,1016.74
2022-10-16T01:49:44.808Z,1016.71
2022-10-16T01:50:44.814Z,1016.7
2022-10-16T01:51:44.815Z,1016.71
2022-10-16T01:52:44.830Z,1016.76
2022-10-16T01:53:44.817Z,1016.7
2022-10-16T01:54:44.817Z,1016.7
2022-10-16T01:55:44.813Z,1016.7
2022-10-16T01:56:44.826Z,1016.7
2022-10-16T01:57:44.821Z,1016.7
2022-10-16T01:58:44.817Z,1016.7
2022-10-16T01:59:44.805Z,1016.7
2022-10-16T02:00:44.933Z,1016.7
2022-10-16T02:01:44.811Z,1016.83
2022-10-16T02:02:44.819Z,1016.65
2022-10-16T02:03:44.819Z,1016.65
2022-10-16T02:04:44.819Z,1016.66
2022-10-16T02:05:44.813Z,1016.65
2022-10-16T02:06:44.824Z,1016.74
2022-10-16T02:07:44.834Z,1016.8
2022-10-16T02:08:44.815Z,1016.75
2022-10-16T02:09:44.806Z,1017.1
2022-10-16T02:10:44.816Z,1016.8
2022-10-16T02:11:44.819Z,1016.79
2022-10-16T02:12:44.821Z,1016.83
2022-10-16T02:13:44.814Z,1016.8
2022-10-16T02:14:44.827Z,1016.83
2022-10-16T02:15:44.812Z,1016.87
2022-10-16T02:16:44.817Z,1016.89
2022-10-16T02:17:44.828Z,1016.99
2022-10-16T02:18:44.803Z,1017.02
2022-10-16T02:19:44.823Z,1016.95
2022-10-16T02:20:44.816Z,1016.95
2022-10-16T02:21:44.813Z,1016.85
2022-10-16T02:22:44.982Z,1016.85
2022-10-16T02:23:44.809Z,1016.85
2022-10-16T02:24:44.815Z,1016.85
2022-10-16T02:25:44.806Z,1016.85
2022-10-16T02:26:44.831Z,1016.85
2022-10-16T02:27:44.829Z,1016.85
2022-10-16T02:28:44.989Z,1016.84
2022-10-16T02:29:44.822Z,1016.91
2022-10-16T02:30:44.806Z,1016.91
2022-10-16T02:31:44.820Z,1016.91
2022-10-16T02:32:44.829Z,1016.79
2022-10-16T02:33:44.822Z,1016.83
2022-10-16T02:34:44.836Z,1016.88
2022-10-16T02:35:44.806Z,1016.86
2022-10-16T02:36:44.818Z,1017.04
2022-10-16T02:37:44.822Z,1016.76
2022-10-16T02:38:44.807Z,1016.75
2022-10-16T02:39:44.800Z,1016.76
2022-10-16T02:40:44.814Z,1016.76
2022-10-16T02:41:44.834Z,1016.76
2022-10-16T02:42:44.829Z,1016.81
2022-10-16T02:43:44.802Z,1016.77
2022-10-16T02:44:44.808Z,1016.76
2022-10-16T02:45:44.809Z,1016.97
2022-10-16T02:46:44.809Z,1016.79
2022-10-16T02:47:44.831Z,1016.81
2022-10-16T02:48:44.809Z,1016.8
2022-10-16T02:49:44.813Z,1016.8
2022-10-16T02:50:44.804Z,1016.83
2022-10-16T02:51:44.795Z,1016.85
2022-10-16T02:52:44.840Z,1016.87
2022-10-16T02:53:44.808Z,1016.79
2022-10-16T02:54:44.794Z,1016.81
2022-10-16T02:55:44.813Z,1016.77
2022-10-16T02:56:44.821Z,1016.77
2022-10-16T02:57:44.821Z,1016.76
2022-10-16T02:58:44.805Z,1016.81
2022-10-16T02:59:44.818Z,1016.83
2022-10-16T03:00:44.871Z,1016.83
2022-10-16T03:01:45.501Z,1016.87
2022-10-16T03:02:44.822Z,1016.88
2022-10-16T03:03:44.810Z,1016.89
2022-10-16T03:04:44.814Z,1016.94
2022-10-16T03:05:44.830Z,1016.97
2022-10-16T03:06:44.829Z,1017.07
2022-10-16T03:07:44.821Z,1017.09
2022-10-16T03:08:44.839Z,1017.18
2022-10-16T03:09:44.808Z,1017.18
2022-10-16T03:10:44.818Z,1017.18
2022-10-16T03:11:44.873Z,1017.18
2022-10-16T03:12:44.823Z,1017.21
2022-10-16T03:13:44.802Z,1017.22
2022-10-16T03:14:44.813Z,1017.19
2022-10-16T03:15:44.809Z,1017.19
2022-10-16T03:16:44.813Z,1017.2
2022-10-16T03:17:44.825Z,1017.18
2022-10-16T03:18:44.817Z,1017.19
2022-10-16T03:19:44.817Z,1017.19
2022-10-16T03:20:44.813Z,1017.23
2022-10-16T03:21:44.828Z,1017.19
2022-10-16T03:22:44.819Z,1017.16
2022-10-16T03:23:44.873Z,1017.16
2022-10-16T03:24:44.816Z,1017.18
2022-10-16T03:25:46.424Z,1017.12
2022-10-16T03:26:44.820Z,1017.18
2022-10-16T03:27:44.828Z,1017.17
2022-10-16T03:28:44.882Z,1017.13
2022-10-16T03:29:44.816Z,1017.15
2022-10-16T03:30:44.811Z,1017.13
2022-10-16T03:31:44.818Z,1017.13
2022-10-16T03:32:44.835Z,1017.22
2022-10-16T03:33:44.809Z,1017.22
2022-10-16T03:34:44.813Z,1017.23
2022-10-16T03:35:44.816Z,1017.18
2022-10-16T03:36:44.813Z,1017.23
2022-10-16T03:37:44.833Z,1017.17
2022-10-16T03:38:44.793Z,1017.14
2022-10-16T03:39:44.807Z,1017.12
2022-10-16T03:40:44.811Z,1017.1
2022-10-16T03:41:44.847Z,1017.12
2022-10-16T03:42:44.824Z,1017.14
2022-10-16T03:43:44.837Z,1017.11
2022-10-16T03:44:44.814Z,1017.19
2022-10-16T03:45:44.812Z,1017.18
2022-10-16T03:46:44.810Z,1017.21
2022-10-16T03:47:44.823Z,1017.22
2022-10-16T03:48:44.830Z,1017.19
2022-10-16T03:49:44.792Z,1017.18
2022-10-16T03:50:44.810Z,1017.13
2022-10-16T03:51:44.823Z,1017.22
2022-10-16T03:52:44.822Z,1017.26
2022-10-16T03:53:44.792Z,1017.29
2022-10-16T03:54:44.809Z,1017.31
2022-10-16T03:55:44.795Z,1017.36
2022-10-16T03:56:44.823Z,1017.39
2022-10-16T03:57:44.828Z,1017.43
2022-10-16T03:58:44.815Z,1017.38
2022-10-16T03:59:44.795Z,1017.43
2022-10-16T04:00:44.905Z,1017.44
2022-10-16T04:01:44.828Z,1017.48
2022-10-16T04:03:44.793Z,1017.53
2022-10-16T04:04:44.864Z,1017.54
2022-10-16T04:05:44.814Z,1017.56
2022-10-16T04:06:44.800Z,1017.55
2022-10-16T04:07:44.807Z,1017.68
2022-10-16T04:08:44.811Z,1017.62
2022-10-16T04:09:44.828Z,1017.64
2022-10-16T04:10:44.807Z,1017.72
2022-10-16T04:11:44.826Z,1017.69
2022-10-16T04:12:44.839Z,1017.73
2022-10-16T04:13:44.814Z,1017.69
2022-10-16T04:14:44.815Z,1017.67
2022-10-16T04:15:44.810Z,1017.76
2022-10-16T04:16:44.817Z,1017.72
2022-10-16T04:17:44.828Z,1017.71
2022-10-16T04:18:44.811Z,1017.75
2022-10-16T04:19:44.812Z,1017.71
2022-10-16T04:20:44.801Z,1017.73
2022-10-16T04:21:44.805Z,1017.77
2022-10-16T04:22:44.827Z,1017.75
2022-10-16T04:23:44.843Z,1017.8
2022-10-16T04:24:44.810Z,1017.79
2022-10-16T04:25:44.820Z,1017.77
2022-10-16T04:26:44.822Z,1017.81
2022-10-16T04:27:46.136Z,1017.74
2022-10-16T04:28:44.842Z,1017.72
2022-10-16T04:29:44.810Z,1017.7
2022-10-16T04:30:44.804Z,1017.75
2022-10-16T04:31:44.819Z,1017.75
2022-10-16T04:32:44.871Z,1017.68
2022-10-16T04:33:44.804Z,1017.7
2022-10-16T04:34:44.816Z,1017.66
2022-10-16T04:35:44.807Z,1017.66
2022-10-16T04:36:44.809Z,1017.58
2022-10-16T04:37:44.820Z,1017.56
2022-10-16T04:38:44.800Z,1017.64
2022-10-16T04:39:44.800Z,1017.57
2022-10-16T04:40:44.830Z,1017.57
2022-10-16T04:41:44.825Z,1017.54
2022-10-16T04:42:44.825Z,1017.52
2022-10-16T04:43:44.803Z,1017.54
2022-10-16T04:44:44.814Z,1017.58
2022-10-16T04:45:44.817Z,1017.63
2022-10-16T04:46:44.815Z,1017.69
2022-10-16T04:47:44.833Z,1017.57
2022-10-16T04:48:44.816Z,1017.64
2022-10-16T04:49:44.811Z,1017.64
2022-10-16T04:50:44.792Z,1017.62
2022-10-16T04:51:44.818Z,1017.76
2022-10-16T04:52:44.822Z,1017.67
2022-10-16T04:53:44.804Z,1017.67
2022-10-16T04:54:44.819Z,1017.67
2022-10-16T04:55:44.816Z,1017.63
2022-10-16T04:56:44.836Z,1017.66
2022-10-16T04:57:44.822Z,1017.64
2022-10-16T04:58:44.832Z,1017.67
2022-10-16T04:59:44.818Z,1017.73
2022-10-16T05:00:44.818Z,1017.74
2022-10-16T05:01:44.802Z,1017.78
2022-10-16T05:02:44.870Z,1017.82
2022-10-16T05:03:44.820Z,1017.78
2022-10-16T05:04:44.812Z,1017.76
2022-10-16T05:05:44.812Z,1017.7
2022-10-16T05:06:44.798Z,1017.72
2022-10-16T05:07:44.833Z,1017.7
2022-10-16T05:08:44.796Z,1017.73
2022-10-16T05:09:44.816Z,1017.69
2022-10-16T05:10:44.812Z,1017.66
2022-10-16T05:11:44.827Z,1017.63
2022-10-16T05:12:44.828Z,1017.66
2022-10-16T05:13:44.807Z,1017.67
2022-10-16T05:14:44.810Z,1017.67
2022-10-16T05:15:44.795Z,1017.73
2022-10-16T05:16:44.797Z,1017.73
2022-10-16T05:17:44.959Z,1017.75
2022-10-16T05:18:44.796Z,1017.75
2022-10-16T05:19:44.797Z,1017.72
2022-10-16T05:20:44.808Z,1017.73
2022-10-16T05:21:44.800Z,1017.76
2022-10-16T05:22:44.852Z,1017.79
2022-10-16T05:23:44.794Z,1017.76
2022-10-16T05:24:44.812Z,1017.84
2022-10-16T05:25:44.816Z,1017.79
2022-10-16T05:26:44.815Z,1017.74
2022-10-16T05:27:44.814Z,1017.73
2022-10-16T05:28:44.884Z,1017.75
2022-10-16T05:29:44.811Z,1017.79
2022-10-16T05:30:44.816Z,1017.78
2022-10-16T05:31:44.817Z,1017.78
2022-10-16T05:32:44.824Z,1017.84
2022-10-16T05:33:44.877Z,1017.88
2022-10-16T05:34:44.808Z,1017.87
2022-10-16T05:35:44.810Z,1017.8
2022-10-16T05:36:44.807Z,1017.77
2022-10-16T05:37:44.829Z,1017.79
2022-10-16T05:38:44.809Z,1017.75
2022-10-16T05:39:44.816Z,1017.78
2022-10-16T05:40:44.819Z,1017.78
2022-10-16T05:41:44.836Z,1017.84
2022-10-16T05:42:44.818Z,1017.87
2022-10-16T05:43:44.809Z,1017.93
2022-10-16T05:44:44.819Z,1017.97
2022-10-16T05:45:44.813Z,1017.88
2022-10-16T05:46:44.815Z,1017.87
2022-10-16T05:47:44.818Z,1017.86
2022-10-16T05:48:44.811Z,1017.84
2022-10-16T05:49:44.813Z,1017.95
2022-10-16T05:50:44.812Z,1017.92
2022-10-16T05:51:44.823Z,1017.94
2022-10-16T05:52:44.866Z,1017.91
2022-10-16T05:54:44.815Z,1017.95
2022-10-16T05:55:44.815Z,1017.94
2022-10-16T05:56:44.822Z,1017.95
2022-10-16T05:57:44.825Z,1017.98
2022-10-16T05:58:44.865Z,1018.01
2022-10-16T05:59:44.809Z,1017.96
2022-10-16T06:00:44.878Z,1017.94
2022-10-16T06:01:44.812Z,1017.99
2022-10-16T06:02:44.834Z,1017.97
2022-10-16T06:03:44.804Z,1018.05
2022-10-16T06:04:44.810Z,1018.06
2022-10-16T06:05:44.818Z,1018
2022-10-16T06:06:44.793Z,1018
2022-10-16T06:07:44.846Z,1018.02
2022-10-16T06:08:44.810Z,1018.07
2022-10-16T06:09:44.818Z,1018.09
2022-10-16T06:10:44.809Z,1018.06
2022-10-16T06:11:44.831Z,1018.05
2022-10-16T06:12:44.829Z,1018.07
2022-10-16T06:13:44.812Z,1018.01
2022-10-16T06:15:44.816Z,1018.08
2022-10-16T06:16:44.812Z,1018.18
2022-10-16T06:17:44.813Z,1018.22
2022-10-16T06:18:44.822Z,1018.34
2022-10-16T06:19:44.814Z,1018.3
2022-10-16T06:20:44.804Z,1018.35
2022-10-16T06:21:44.818Z,1018.45
2022-10-16T06:22:44.994Z,1018.43
2022-10-16T06:24:44.806Z,1018.44
2022-10-16T06:25:44.796Z,1018.5
2022-10-16T06:26:44.825Z,1018.48
2022-10-16T06:27:44.818Z,1018.54
2022-10-16T06:28:44.850Z,1018.4
2022-10-16T06:29:44.822Z,1018.41
2022-10-16T06:30:44.807Z,1018.37
2022-10-16T06:31:44.829Z,1018.52
2022-10-16T06:32:44.882Z,1018.48
2022-10-16T06:33:44.821Z,1018.47
2022-10-16T06:34:44.796Z,1018.49
2022-10-16T06:35:52.186Z,1018.71
2022-10-16T06:36:51.073Z,1018.49
2022-10-16T06:37:51.114Z,1018.55
2022-10-16T06:38:51.041Z,1018.52
2022-10-16T06:39:51.042Z,1018.58
2022-10-16T06:40:51.024Z,1018.58
2022-10-16T06:41:51.198Z,1018.58
2022-10-16T06:42:51.053Z,1018.72
2022-10-16T06:43:51.033Z,1018.63
2022-10-16T06:44:51.043Z,1018.65
2022-10-16T06:45:51.026Z,1018.64
2022-10-16T06:46:51.038Z,1018.89
2022-10-16T06:47:51.050Z,1018.71
2022-10-16T06:48:51.030Z,1018.83
2022-10-16T06:49:53.623Z,1018.78
2022-10-16T06:50:51.020Z,1018.71
2022-10-16T06:51:51.026Z,1018.75
2022-10-16T06:52:51.051Z,1018.81
2022-10-16T06:54:02.802Z,1018.87
2022-10-16T06:54:51.064Z,1018.83
2022-10-16T06:55:51.036Z,1018.84
2022-10-16T06:56:51.067Z,1018.82
2022-10-16T06:57:51.032Z,1018.69
2022-10-16T06:58:51.033Z,1018.83
2022-10-16T06:59:55.150Z,1018.93
2022-10-16T07:00:51.040Z,1018.84
2022-10-16T07:01:51.021Z,1018.86
2022-10-16T07:02:51.039Z,1018.95
2022-10-16T07:03:51.074Z,1018.92
2022-10-16T07:04:51.030Z,1018.88
2022-10-16T07:05:51.030Z,1018.89
2022-10-16T07:06:51.028Z,1019.05
2022-10-16T07:07:51.040Z,1019.02
2022-10-16T07:08:51.030Z,1018.86
2022-10-16T07:09:51.038Z,1018.91
2022-10-16T07:10:51.025Z,1018.91
2022-10-16T07:11:51.043Z,1018.98
2022-10-16T07:12:51.032Z,1018.9
2022-10-16T07:13:54.659Z,1018.9
2022-10-16T07:14:51.018Z,1018.89
2022-10-16T07:15:51.006Z,1019.07
2022-10-16T07:16:51.004Z,1018.87
2022-10-16T07:17:51.044Z,1018.84
2022-10-16T07:18:51.013Z,1018.87
2022-10-16T07:19:51.007Z,1018.95
2022-10-16T07:20:51.002Z,1018.85
2022-10-16T07:21:51.007Z,1018.91
2022-10-16T07:22:51.204Z,1018.9
2022-10-16T07:23:51.008Z,1019
2022-10-16T07:24:52.702Z,1018.95
2022-10-16T07:25:51.018Z,1019.04
2022-10-16T07:26:51.033Z,1019.28
2022-10-16T07:27:51.012Z,1019.03
2022-10-16T07:28:51.099Z,1018.98
2022-10-16T07:29:51.004Z,1019.24
2022-10-16T07:30:51.004Z,1019.01
2022-10-16T07:31:51.022Z,1018.98
2022-10-16T07:32:51.046Z,1019.05
2022-10-16T07:33:51.023Z,1018.86
2022-10-16T07:34:51.021Z,1018.98
2022-10-16T07:35:51.020Z,1019.19
2022-10-16T07:36:51.084Z,1019.07
2022-10-16T07:37:51.037Z,1019.14
2022-10-16T07:38:52.909Z,1019.15
2022-10-16T07:39:51.022Z,1019.26
2022-10-16T07:40:51.020Z,1019.3
2022-10-16T07:41:51.032Z,1019.3
2022-10-16T07:42:51.041Z,1019.13
2022-10-16T07:43:51.033Z,1019.17
2022-10-16T07:44:51.033Z,1019.13
2022-10-16T07:46:51.027Z,1019.27
2022-10-16T07:47:51.058Z,1019.25
2022-10-16T07:48:51.031Z,1019.36
2022-10-16T07:49:51.029Z,1019.26
2022-10-16T07:50:51.026Z,1019.4
2022-10-16T07:51:51.014Z,1019.25
2022-10-16T07:52:51.032Z,1019.24
2022-10-16T07:53:51.026Z,1019.46
2022-10-16T07:54:51.107Z,1019.17
2022-10-16T07:55:51.026Z,1019.31
2022-10-16T07:56:51.030Z,1019.35
2022-10-16T07:57:51.026Z,1019.34
2022-10-16T07:58:51.036Z,1019.37
2022-10-16T07:59:51.024Z,1019.34
2022-10-16T08:00:50.999Z,1019.4
2022-10-16T08:01:51.203Z,1019.42
2022-10-16T08:02:51.036Z,1019.37
2022-10-16T08:03:51.147Z,1019.4
2022-10-16T08:04:51.030Z,1019.44
2022-10-16T08:05:51.114Z,1019.53
2022-10-16T08:06:51.015Z,1019.55
2022-10-16T08:07:51.025Z,1019.57
2022-10-16T08:08:51.030Z,1019.69
2022-10-16T08:09:51.020Z,1019.62
2022-10-16T08:10:51.030Z,1019.57
2022-10-16T08:11:51.030Z,1019.55
2022-10-16T08:12:51.037Z,1019.63
2022-10-16T08:13:51.017Z,1019.66
2022-10-16T08:14:51.025Z,1019.55
2022-10-16T08:15:51.020Z,1019.56
2022-10-16T08:16:51.012Z,1019.59
2022-10-16T08:17:51.036Z,1019.55
2022-10-16T08:18:51.032Z,1019.55
2022-10-16T08:19:51.031Z,1019.7
2022-10-16T08:20:51.005Z,1019.72
2022-10-16T08:21:51.022Z,1019.52
2022-10-16T08:22:51.017Z,1019.52
2022-10-16T08:23:54.819Z,1019.59
2022-10-16T08:24:51.004Z,1019.59
2022-10-16T08:25:51.014Z,1019.57
2022-10-16T08:26:51.069Z,1019.62
2022-10-16T08:27:51.015Z,1019.61
2022-10-16T08:28:51.105Z,1019.66
2022-10-16T08:29:51.013Z,1019.53
2022-10-16T08:30:51.019Z,1019.53
2022-10-16T08:31:51.002Z,1019.45
2022-10-16T08:32:51.012Z,1019.58
2022-10-16T08:33:50.998Z,1019.56
2022-10-16T08:34:51.011Z,1019.61
2022-10-16T08:35:51.006Z,1019.68
2022-10-16T08:36:51.000Z,1019.67
2022-10-16T08:37:51.021Z,1019.72
2022-10-16T08:38:51.000Z,1019.67
2022-10-16T08:39:51.025Z,1019.75
2022-10-16T08:40:53.580Z,1019.65
2022-10-16T08:41:51.032Z,1019.62
2022-10-16T08:42:51.043Z,1019.51
2022-10-16T08:43:51.001Z,1019.58
2022-10-16T08:44:51.014Z,1019.7
2022-10-16T08:45:51.018Z,1019.74
2022-10-16T08:46:51.026Z,1019.31
2022-10-16T08:47:51.036Z,1019.32
2022-10-16T08:48:51.016Z,1019.34
2022-10-16T08:49:51.026Z,1019.42
2022-10-16T08:50:51.015Z,1019.4
2022-10-16T08:51:51.020Z,1019.4
2022-10-16T08:52:51.030Z,1019.41
2022-10-16T08:53:51.018Z,1019.49
2022-10-16T08:54:51.024Z,1019.41
2022-10-16T08:55:51.018Z,1019.41
2022-10-16T08:56:51.032Z,1019.32
2022-10-16T08:57:51.034Z,1019.38
2022-10-16T08:58:52.842Z,1019.17
2022-10-16T08:59:51.021Z,1019.2
2022-10-16T09:00:51.119Z,1019.11
2022-10-16T09:01:51.021Z,1019.08
2022-10-16T09:02:51.030Z,1019.23
2022-10-16T09:03:51.021Z,1019.05
2022-10-16T09:04:56.344Z,1019.03
2022-10-16T09:05:51.021Z,1018.91
2022-10-16T09:06:51.016Z,1018.88
2022-10-16T09:07:51.124Z,1018.87
2022-10-16T09:08:51.020Z,1018.85
2022-10-16T09:09:51.017Z,1018.83
2022-10-16T09:10:51.016Z,1018.82
2022-10-16T09:11:51.036Z,1018.86
2022-10-16T09:12:51.030Z,1018.9
2022-10-16T09:13:51.022Z,1019.06
2022-10-16T09:14:51.026Z,1019.12
2022-10-16T09:15:51.021Z,1019.1
2022-10-16T09:16:51.019Z,1019
2022-10-16T09:17:51.026Z,1019.02
2022-10-16T09:18:51.025Z,1019.04
2022-10-16T09:19:51.057Z,1018.96
2022-10-16T09:20:51.024Z,1018.91
2022-10-16T09:21:51.011Z,1018.82
2022-10-16T09:22:51.038Z,1018.88
2022-10-16T09:23:51.052Z,1018.94
2022-10-16T09:24:51.023Z,1018.94
2022-10-16T09:25:51.023Z,1018.94
2022-10-16T09:26:51.043Z,1018.82
2022-10-16T09:27:51.030Z,1018.82
2022-10-16T09:28:51.085Z,1018.89
2022-10-16T09:29:51.011Z,1018.85
2022-10-16T09:30:51.020Z,1018.83
2022-10-16T09:31:51.025Z,1018.8
2022-10-16T09:32:51.011Z,1018.85
2022-10-16T09:33:51.007Z,1018.85
2022-10-16T09:34:51.000Z,1018.9
2022-10-16T09:35:51.001Z,1018.9
2022-10-16T09:36:50.998Z,1018.95
2022-10-16T09:37:51.019Z,1019.13
2022-10-16T09:38:51.000Z,1018.96
2022-10-16T09:39:51.009Z,1018.9
2022-10-16T09:40:58.778Z,1019.15
2022-10-16T09:41:51.078Z,1019
2022-10-16T09:42:51.018Z,1018.92
2022-10-16T09:43:51.004Z,1018.91
2022-10-16T09:44:51.008Z,1018.95
2022-10-16T09:45:51.004Z,1018.9
2022-10-16T09:46:51.004Z,1018.95
2022-10-16T09:47:54.075Z,1019
2022-10-16T09:48:51.005Z,1019.04
2022-10-16T09:49:51.029Z,1019.04
2022-10-16T09:50:51.003Z,1019.13
2022-10-16T09:51:51.021Z,1019.04
2022-10-16T09:52:51.139Z,1019.1
2022-10-16T09:53:51.024Z,1019.03
2022-10-16T09:54:51.020Z,1018.91
2022-10-16T09:55:51.015Z,1019.13
2022-10-16T09:56:51.033Z,1019.08
2022-10-16T09:57:51.025Z,1019.08
2022-10-16T09:58:51.018Z,1019.09
2022-10-16T09:59:51.020Z,1018.94
2022-10-16T10:00:51.036Z,1018.97
2022-10-16T10:01:51.022Z,1018.99
2022-10-16T10:02:51.084Z,1019.06
2022-10-16T10:03:51.021Z,1019.08
2022-10-16T10:04:51.030Z,1018.92
2022-10-16T10:05:51.023Z,1018.81
2022-10-16T10:06:51.017Z,1019.01
2022-10-16T10:07:51.029Z,1018.88
2022-10-16T10:08:51.018Z,1019.01
2022-10-16T10:09:51.025Z,1018.91
2022-10-16T10:10:51.027Z,1019.05
2022-10-16T10:11:51.215Z,1019.06
2022-10-16T10:12:51.029Z,1019.02
2022-10-16T10:13:51.015Z,1018.92
2022-10-16T10:14:51.018Z,1019.02
2022-10-16T10:15:51.018Z,1018.97
2022-10-16T10:16:51.086Z,1019
2022-10-16T10:17:51.032Z,1019.06
2022-10-16T10:18:51.016Z,1019.06
2022-10-16T10:19:51.053Z,1018.94
2022-10-16T10:20:51.105Z,1019.13
2022-10-16T10:21:51.023Z,1018.98
2022-10-16T10:22:51.039Z,1019.05
2022-10-16T10:23:51.023Z,1019.18
2022-10-16T10:24:51.016Z,1019.06
2022-10-16T10:25:51.020Z,1019.06
2022-10-16T10:26:51.040Z,1019.1
2022-10-16T10:27:51.031Z,1019.21
2022-10-16T10:28:51.054Z,1019.09
2022-10-16T10:29:51.015Z,1019.2
2022-10-16T10:30:51.025Z,1019.07
2022-10-16T10:31:51.025Z,1019.24
2022-10-16T10:32:51.046Z,1019.35
2022-10-16T10:33:51.026Z,1019.12
2022-10-16T10:34:54.251Z,1019.27
2022-10-16T10:35:51.023Z,1019.23
2022-10-16T10:36:51.010Z,1019.21
2022-10-16T10:37:51.048Z,1019.26
2022-10-16T10:38:51.027Z,1019.27
2022-10-16T10:39:51.015Z,1019.26
2022-10-16T10:40:51.015Z,1019.2
2022-10-16T10:41:51.027Z,1019.45
2022-10-16T10:42:51.029Z,1019.4
2022-10-16T10:43:51.035Z,1019.4
2022-10-16T10:44:51.026Z,1019.28
2022-10-16T10:45:51.021Z,1019.3
2022-10-16T10:46:51.023Z,1019.34
2022-10-16T10:47:51.017Z,1019.57
2022-10-16T10:48:51.002Z,1019.3
2022-10-16T10:49:51.030Z,1019.27
2022-10-16T10:50:51.005Z,1019.32
2022-10-16T10:51:50.997Z,1019.37
2022-10-16T10:52:51.021Z,1019.22
2022-10-16T10:53:51.004Z,1019.47
2022-10-16T10:54:51.022Z,1019.49
2022-10-16T10:55:51.007Z,1019.55
2022-10-16T10:56:51.011Z,1019.57
2022-10-16T10:57:51.013Z,1019.63
2022-10-16T10:58:51.001Z,1019.52
2022-10-16T10:59:51.002Z,1019.55
2022-10-16T11:00:51.014Z,1019.51
2022-10-16T11:01:51.074Z,1019.51
2022-10-16T11:02:51.018Z,1019.65
2022-10-16T11:03:54.770Z,1019.66
2022-10-16T11:04:51.002Z,1019.56
2022-10-16T11:05:51.013Z,1019.51
2022-10-16T11:06:51.014Z,1019.51
2022-10-16T11:07:51.037Z,1019.63
2022-10-16T11:08:51.011Z,1019.55
2022-10-16T11:09:51.023Z,1019.56
2022-10-16T11:10:51.017Z,1019.57
2022-10-16T11:11:51.037Z,1019.62
2022-10-16T11:12:51.036Z,1019.77
2022-10-16T11:13:51.024Z,1019.69
2022-10-16T11:14:51.021Z,1019.63
2022-10-16T11:15:51.021Z,1019.65
2022-10-16T11:16:51.015Z,1019.63
2022-10-16T11:17:51.028Z,1019.6
2022-10-16T11:18:51.012Z,1019.62
2022-10-16T11:19:51.030Z,1019.76
2022-10-16T11:20:51.025Z,1019.6
2022-10-16T11:21:51.016Z,1019.56
2022-10-16T11:22:51.050Z,1019.68
2022-10-16T11:23:51.026Z,1019.59
2022-10-16T11:24:51.099Z,1019.55
2022-10-16T11:25:51.018Z,1019.55
2022-10-16T11:26:51.204Z,1019.59
2022-10-16T11:27:51.032Z,1019.58
2022-10-16T11:28:51.096Z,1019.64
2022-10-16T11:29:51.017Z,1019.64
2022-10-16T11:30:51.021Z,1019.69
2022-10-16T11:31:51.014Z,1019.72
2022-10-16T11:32:51.029Z,1019.59
2022-10-16T11:33:51.089Z,1019.73
2022-10-16T11:34:51.021Z,1019.78
2022-10-16T11:35:51.012Z,1019.75
2022-10-16T11:36:51.018Z,1019.72
2022-10-16T11:37:51.036Z,1019.8
2022-10-16T11:38:51.024Z,1019.8
2022-10-16T11:39:51.012Z,1019.87
2022-10-16T11:40:51.022Z,1019.83
2022-10-16T11:41:51.021Z,1019.8
2022-10-16T11:42:51.028Z,1019.77
2022-10-16T11:43:51.007Z,1019.79
2022-10-16T11:44:51.018Z,1019.77
2022-10-16T11:45:51.019Z,1019.79
2022-10-16T11:46:59.222Z,1019.9
2022-10-16T11:47:59.175Z,1019.79
2022-10-16T11:48:51.025Z,1019.84
2022-10-16T11:49:51.019Z,1019.94
2022-10-16T11:50:51.019Z,1019.87
2022-10-16T11:51:51.020Z,1019.91
2022-10-16T11:52:51.031Z,1019.82
2022-10-16T11:53:51.020Z,1019.84
2022-10-16T11:54:51.024Z,1019.85
2022-10-16T11:55:51.032Z,1019.89
2022-10-16T11:56:51.001Z,1019.92
2022-10-16T11:57:51.013Z,1019.9
2022-10-16T11:58:50.999Z,1019.89
2022-10-16T11:59:50.999Z,1019.9
2022-10-16T12:00:50.996Z,1019.91
2022-10-16T12:01:51.001Z,1020.27
2022-10-16T12:02:51.130Z,1019.92
2022-10-16T12:03:51.653Z,1019.87
2022-10-16T12:04:50.997Z,1019.9
2022-10-16T12:05:51.002Z,1020.02
2022-10-16T12:06:50.998Z,1019.91
2022-10-16T12:07:51.013Z,1019.87
2022-10-16T12:08:50.999Z,1019.89
2022-10-16T12:09:51.001Z,1019.84
2022-10-16T12:10:51.004Z,1019.8
2022-10-16T12:11:51.003Z,1019.77
2022-10-16T12:12:51.025Z,1019.73
2022-10-16T12:13:50.996Z,1019.7